Latest Weather Observations for Flinders Reef

IDQ60801

Issued at 1:05 am EST Saturday 26 July 2014 (issued every 30 minutes, with the page automatically refreshed every 10 minutes)

About weather observations | Map of weather stations | Latest weather observations for QLD | Other Formats
Station Details ID: 200783 Name: FLINDERS REEF Lat: -17.72 Lon: 148.45 Height: 2.6 m
Data from the previous 72 hours. | See also: Recent months at Flinders Reef
Date/Time
EST
Temp
°C
App
Temp
°C
Dew
Point
Rel
Hum
%
Delta-T
°C
Wind Press
QNH
hPa
Press
MSL
hPa
Rain
since 9 am
mm
Dir
 
Spd
km/h
Gust
km/h
Spd
kts
Gust
kts
26/01:00am 23.6 - - - - E 35 39 19 21 1021.3 - -
26/12:30am 23.7 - - - - E 33 41 18 22 1021.5 - -
26/12:24am 23.3 - - - - E 37 - 20 - - 1021.4 -
26/12:00am 23.2 - - - - E 37 46 20 25 1021.7 - -
 
Date/Time
EST
Temp
°C
App
Temp
°C
Dew
Point
Rel
Hum
%
Delta-T
°C
Wind Press
QNH
hPa
Press
MSL
hPa
Rain
since 9 am
mm
Dir
 
Spd
km/h
Gust
km/h
Spd
kts
Gust
kts
25/11:30pm 23.8 - - - - E 35 43 19 23 1021.9 - -
25/11:24pm 23.7 - - - - E 35 - 19 - - 1021.9 -
25/11:00pm 23.8 - - - - E 35 41 19 22 1022.0 - -
25/10:30pm 23.6 - - - - ESE 35 41 19 22 1021.9 - -
25/10:24pm 23.8 - - - - ESE 35 - 19 - - 1021.9 -
25/10:00pm 23.7 - - - - ESE 35 43 19 23 1021.9 - -
25/09:30pm 23.7 - - - - ESE 35 41 19 22 1021.9 - -
25/09:24pm 23.9 - - - - E 35 - 19 - - 1021.8 -
25/09:00pm 23.6 - - - - E 37 43 20 23 1021.9 - -
25/08:30pm 23.7 - - - - E 35 39 19 21 1021.6 - -
25/08:24pm 23.7 - - - - E 35 - 19 - - 1021.5 -
25/08:00pm 23.7 - - - - E 35 41 19 22 1021.2 - -
25/07:30pm 23.8 - - - - E 37 43 20 23 1020.9 - -
25/07:24pm 23.7 - - - - ESE 37 - 20 - - 1020.6 -
25/07:00pm 23.8 - - - - E 37 43 20 23 1020.4 - -
25/06:30pm 23.8 - - - - E 33 39 18 21 1020.1 - -
25/06:24pm 23.9 - - - - E 33 - 18 - - 1019.9 -
25/06:00pm 23.9 - - - - E 35 41 19 22 1019.7 - -
25/05:30pm 23.8 - - - - E 35 41 19 22 1019.5 - -
25/05:24pm 23.6 - - - - E 35 - 19 - - 1019.3 -
25/05:00pm 23.8 - - - - E 33 39 18 21 1019.4 - -
25/04:30pm 23.9 - - - - E 37 44 20 24 1019.1 - -
25/04:24pm 23.7 - - - - E 37 - 20 - - 1018.9 -
25/04:00pm 23.7 - - - - E 35 41 19 22 1018.8 - -
25/03:30pm 23.9 - - - - ESE 35 39 19 21 1018.8 - -
25/03:24pm 23.8 - - - - ESE 35 - 19 - - 1018.7 -
25/03:00pm 23.9 - - - - E 26 41 14 22 1018.6 - -
25/02:30pm 23.1 - - - - E 33 39 18 21 1018.7 - -
25/02:24pm 23.1 - - - - E 33 41 18 22 1018.7 1018.6 -
25/02:00pm 21.9 - - - - ESE 37 46 20 25 1019.0 - -
25/01:30pm 23.1 - - - - ESE 35 50 19 27 1018.9 - -
25/01:24pm 23.6 - - - - ESE 33 - 18 - - 1018.9 -
25/01:00pm 23.9 - - - - ESE 33 39 18 21 1019.3 - -
25/12:30pm 23.8 - - - - ESE 32 37 17 20 1019.7 - -
25/12:24pm 23.9 - - - - ESE 32 - 17 - - 1019.7 -
25/12:00pm 23.6 - - - - ESE 33 39 18 21 1020.1 - -
25/11:30am 23.8 - - - - ESE 33 39 18 21 1020.5 - -
25/11:24am 23.9 - - - - ESE 33 - 18 - - 1020.5 -
25/11:00am 23.8 - - - - ESE 33 37 18 20 1020.8 - -
25/10:30am 23.5 - - - - ESE 32 39 17 21 1021.1 - -
25/10:24am 23.6 - - - - ESE 32 - 17 - - 1021.0 -
25/10:00am 23.5 - - - - ESE 32 37 17 20 1021.3 - -
25/09:30am 23.8 - - - - ESE 37 43 20 23 1021.2 - -
25/09:24am 23.8 - - - - ESE 37 - 20 - - 1021.1 -
25/09:00am 23.8 - - - - ESE 37 44 20 24 1021.0 - -
25/08:30am 23.6 - - - - ESE 35 44 19 24 1020.9 - -
25/08:24am 23.8 - - - - ESE 33 - 18 - - 1020.8 -
25/08:00am 23.7 - - - - E 37 43 20 23 1020.6 - -
25/07:30am 23.6 - - - - E 37 44 20 24 1020.2 - -
25/07:24am 23.7 - - - - E 37 - 20 - - 1019.9 -
25/07:00am 23.5 - - - - E 37 43 20 23 1019.6 - -
25/06:30am 23.4 - - - - E 43 50 23 27 1019.2 - -
25/06:24am 23.3 - - - - E 43 - 23 - - 1019.0 -
25/06:00am 23.5 - - - - E 43 50 23 27 1018.7 - -
25/05:30am 23.3 - - - - E 37 43 20 23 1018.3 - -
25/05:24am 23.5 - - - - E 37 - 20 - - 1018.2 -
25/05:00am 23.4 - - - - E 35 43 19 23 1018.0 - -
25/04:30am 23.3 - - - - E 33 39 18 21 1018.0 - -
25/04:24am 23.2 - - - - E 35 - 19 - - 1017.9 -
25/04:00am 23.0 - - - - E 37 43 20 23 1018.1 - -
25/03:30am 23.6 - - - - E 33 41 18 22 1018.0 - -
25/03:24am 23.4 - - - - E 33 - 18 - - 1017.9 -
25/02:24am 23.5 - - - - E 39 - 21 - - 1017.9 -
25/02:00am 23.3 - - - - E 37 44 20 24 1018.2 - -
25/01:24am 23.0 - - - - E 41 - 22 - - 1018.2 -
25/12:24am 23.4 - - - - E 41 - 22 - - 1018.8 -
25/12:00am 23.0 - - - - ENE 33 41 18 22 1019.2 - -
 
Date/Time
EST
Temp
°C
App
Temp
°C
Dew
Point
Rel
Hum
%
Delta-T
°C
Wind Press
QNH
hPa
Press
MSL
hPa
Rain
since 9 am
mm
Dir
 
Spd
km/h
Gust
km/h
Spd
kts
Gust
kts
24/11:46pm 23.4 - - - - ENE 39 46 21 25 1019.4 - -
24/11:30pm 23.4 - - - - E 32 37 17 20 1019.3 - -
24/11:24pm 23.6 - - - - E 33 - 18 - - 1019.3 -
24/11:00pm 22.4 - - - - SE 33 43 18 23 1019.6 - -
24/10:30pm 23.7 - - - - E 33 41 18 22 1019.6 - -
24/10:24pm 23.3 - - - - E 33 - 18 - - 1019.4 -
24/10:00pm 23.4 - - - - E 33 39 18 21 1019.5 - -
24/09:30pm 23.0 - - - - E 35 41 19 22 1019.4 - -
24/09:24pm 23.0 - - - - E 33 - 18 - - 1019.2 -
24/09:00pm 23.6 - - - - E 32 35 17 19 1019.2 - -
24/08:30pm 23.5 - - - - E 32 37 17 20 1018.8 - -
24/08:24pm 23.6 - - - - E 32 - 17 - - 1018.7 -
24/08:00pm 23.5 - - - - E 32 35 17 19 1018.8 - -
24/07:30pm 22.4 - - - - NE 19 35 10 19 1018.5 - -
24/07:24pm 22.0 - - - - NE 9 - 5 - - 1018.4 -
24/07:00pm 21.5 - - - - NE 20 28 11 15 1018.3 - -
24/06:46pm 21.2 - - - - NE 22 35 12 19 1018.1 - -
24/06:30pm 22.7 - - - - E 37 46 20 25 1017.7 - -
24/06:24pm 23.3 - - - - E 30 - 16 - - 1017.4 -
24/06:00pm 23.1 - - - - E 26 32 14 17 1017.1 - -
24/05:30pm 23.4 - - - - E 22 30 12 16 1016.7 - -
24/05:24pm 23.1 - - - - E 24 - 13 - - 1016.6 -
24/05:00pm 23.2 - - - - E 24 28 13 15 1016.4 - -
24/04:30pm 22.4 - - - - E 22 30 12 16 1016.3 - -
24/04:24pm 22.1 - - - - E 30 - 16 - - 1016.2 -
24/04:03pm 23.9 - - - - E 30 50 16 27 1015.9 - -
24/04:00pm 24.3 - - - - E 26 32 14 17 1016.0 - -
24/03:30pm 24.0 - - - - E 28 32 15 17 1015.9 - -
24/03:24pm 23.9 - - - - E 28 - 15 - - 1015.8 -
24/03:00pm 23.8 - - - - ENE 30 35 16 19 1015.8 - -
24/02:30pm 22.3 - - - - ENE 22 30 12 16 1016.0 - -
24/02:24pm 22.7 - - - - ENE 24 - 13 - - 1015.9 -
24/02:00pm 23.0 - - - - E 28 37 15 20 1016.0 - -
24/01:30pm 23.7 - - - - ENE 30 35 16 19 1016.4 - -
24/01:24pm 24.1 - - - - E 30 - 16 - - 1016.3 -
24/01:00pm 23.5 - - - - E 32 35 17 19 1016.6 - -
24/12:30pm 24.3 - - - - E 35 41 19 22 1016.9 - -
24/12:24pm 24.0 - - - - E 33 - 18 - - 1016.9 -
24/12:00pm 24.2 - - - - E 33 37 18 20 1017.3 - -
24/11:30am 23.7 - - - - E 30 33 16 18 1017.7 - -
24/11:24am 23.6 - - - - E 32 - 17 - - 1017.7 -
24/11:00am 23.6 - - - - E 35 41 19 22 1017.9 - -
24/10:30am 24.1 - - - - E 33 41 18 22 1018.0 - -
24/10:24am 24.0 - - - - E 32 - 17 - - 1018.0 -
24/10:00am 23.9 - - - - E 32 37 17 20 1018.1 - -
24/09:30am 23.5 - - - - E 30 35 16 19 1017.9 - -
24/09:24am 23.4 - - - - E 30 - 16 - - 1017.8 -
24/09:00am 23.3 - - - - E 28 35 15 19 1017.7 - -
24/08:30am 23.2 - - - - E 26 30 14 16 1017.6 - -
24/08:24am 23.1 - - - - E 24 - 13 - - 1017.4 -
24/08:00am 23.1 - - - - E 24 30 13 16 1017.3 - -
24/07:30am 23.0 - - - - E 22 28 12 15 1017.0 - -
24/07:24am 22.9 - - - - E 24 - 13 - - 1016.8 -
24/07:00am 22.5 - - - - ESE 22 28 12 15 1016.7 - -
24/06:30am 22.7 - - - - E 22 28 12 15 1016.6 - -
24/06:24am 22.5 - - - - E 24 - 13 - - 1016.4 -
24/06:00am 22.5 - - - - E 22 28 12 15 1016.3 - -
24/05:30am 22.6 - - - - E 24 32 13 17 1016.1 - -
24/05:24am 22.6 - - - - E 26 - 14 - - 1015.9 -
24/05:00am 22.5 - - - - E 26 32 14 17 1015.9 - -
24/04:30am 22.7 - - - - E 24 28 13 15 1015.8 - -
24/04:24am 22.6 - - - - E 22 - 12 - - 1015.7 -
24/04:00am 22.6 - - - - E 22 26 12 14 1016.0 - -
24/03:30am 22.3 - - - - E 20 26 11 14 1015.9 - -
24/03:24am 22.3 - - - - E 19 - 10 - - 1015.8 -
24/03:00am 22.4 - - - - E 17 20 9 11 1016.1 - -
24/02:30am 22.5 - - - - E 20 24 11 13 1016.2 - -
24/02:24am 22.4 - - - - E 20 - 11 - - 1016.2 -
24/02:00am 22.0 - - - - E 20 26 11 14 1016.4 - -
24/01:30am 22.4 - - - - ESE 24 32 13 17 1016.6 - -
24/01:24am 22.3 - - - - E 17 - 9 - - 1016.6 -
24/01:00am 22.1 - - - - ENE 15 19 8 10 1016.9 - -
24/12:30am 22.2 - - - - E 20 24 11 13 1017.2 - -
24/12:24am 22.0 - - - - E 20 - 11 - - 1017.2 -
24/12:00am 21.6 - - - - E 22 30 12 16 1017.3 - -
 
Date/Time
EST
Temp
°C
App
Temp
°C
Dew
Point
Rel
Hum
%
Delta-T
°C
Wind Press
QNH
hPa
Press
MSL
hPa
Rain
since 9 am
mm
Dir
 
Spd
km/h
Gust
km/h
Spd
kts
Gust
kts
23/11:30pm 22.3 - - - - E 28 37 15 20 1017.6 - -
23/11:24pm 22.7 - - - - E 26 - 14 - - 1017.5 -
23/11:00pm 22.5 - - - - ESE 28 35 15 19 1017.4 - -
23/10:30pm 22.4 - - - - ESE 33 39 18 21 1017.6 - -
23/10:24pm 22.4 - - - - ESE 28 - 15 - - 1017.5 -
23/10:00pm 22.8 - - - - ESE 26 30 14 16 1017.8 - -
23/09:30pm 22.9 - - - - ESE 24 32 13 17 1017.8 - -
23/09:24pm 22.6 - - - - ESE 26 - 14 - - 1017.7 -
23/09:00pm 22.6 - - - - ESE 24 28 13 15 1017.6 - -
23/08:30pm 22.7 - - - - ESE 24 28 13 15 1017.6 - -
23/08:24pm 22.7 - - - - ESE 22 - 12 - - 1017.4 -
23/08:00pm 22.5 - - - - ESE 24 30 13 16 1017.5 - -
23/07:30pm 22.6 - - - - SE 26 32 14 17 1017.2 - -
23/07:24pm 22.6 - - - - SE 24 - 13 - - 1017.0 -
23/07:00pm 22.5 - - - - SE 28 33 15 18 1016.8 - -
23/06:30pm 22.5 - - - - SE 28 33 15 18 1016.6 - -
23/06:24pm 22.5 - - - - SE 28 - 15 - - 1016.5 -
23/06:00pm 22.5 - - - - SE 28 32 15 17 1016.3 - -
23/05:30pm 22.4 - - - - SE 28 33 15 18 1016.0 - -
23/05:24pm 22.5 - - - - SE 26 - 14 - - 1015.9 -
23/05:00pm 22.5 - - - - SE 24 32 13 17 1015.7 - -
23/04:30pm 22.8 - - - - SE 26 32 14 17 1015.6 - -
23/04:24pm 22.8 - - - - SE 26 - 14 - - 1015.3 -
23/04:00pm 22.8 - - - - SE 26 33 14 18 1015.3 - -
23/03:30pm 22.8 - - - - SE 26 32 14 17 1015.3 - -
23/03:24pm 22.7 - - - - SE 26 - 14 - - 1015.1 -
23/03:00pm 22.8 - - - - SE 30 35 16 19 1015.1 - -
23/02:30pm 22.5 - - - - SE 30 35 16 19 1015.0 - -
23/02:24pm 22.6 - - - - SE 28 - 15 - - 1014.9 -
23/02:00pm 22.9 - - - - SE 26 32 14 17 1015.1 - -
23/01:30pm 22.4 - - - - SE 26 32 14 17 1015.4 - -
23/01:24pm 22.6 - - - - SE 26 - 14 - - 1015.5 -
23/01:00pm 22.7 - - - - SE 22 28 12 15 1015.8 - -
23/12:30pm 22.5 - - - - SE 24 30 13 16 1016.2 - -
23/12:24pm 22.5 - - - - SE 22 - 12 - - 1016.2 -
23/12:00pm 22.6 - - - - SE 20 28 11 15 1016.6 - -
23/11:30am 22.7 - - - - ESE 22 28 12 15 1017.1 - -
23/11:24am 22.6 - - - - ESE 20 - 11 - - 1017.0 -
23/11:00am 22.8 - - - - ESE 20 26 11 14 1017.4 - -
23/10:30am 22.7 - - - - ESE 20 26 11 14 1017.8 - -
23/10:24am 22.8 - - - - ESE 20 - 11 - - 1017.8 -
23/10:00am 22.3 - - - - SE 20 26 11 14 1018.1 - -
23/09:30am 22.2 - - - - SE 20 26 11 14 1018.3 - -
23/09:24am 22.0 - - - - SE 20 - 11 - - 1018.2 -
23/09:00am 22.1 - - - - SE 20 26 11 14 1018.2 - -
23/08:30am 21.6 - - - - SE 20 26 11 14 1018.1 - -
23/08:24am 21.8 - - - - SE 20 - 11 - - 1017.9 -
23/08:00am 21.7 - - - - SE 22 28 12 15 1017.8 - -
23/07:30am 21.9 - - - - SSE 22 28 12 15 1017.5 - -
23/07:24am 21.7 - - - - SSE 22 - 12 - - 1017.3 -
23/07:00am 21.4 - - - - SSE 22 28 12 15 1017.3 - -
23/06:30am 21.6 - - - - SE 22 26 12 14 1016.9 - -
23/06:24am 21.3 - - - - SE 22 - 12 - - 1016.8 -
23/06:00am 21.4 - - - - SE 22 28 12 15 1016.7 - -
23/05:30am 21.5 - - - - ESE 20 24 11 13 1016.5 - -
23/05:24am 21.4 - - - - ESE 20 - 11 - - 1016.4 -
23/05:00am 21.3 - - - - ESE 22 26 12 14 1016.4 - -
23/04:30am 21.3 - - - - SE 20 24 11 13 1016.3 - -
23/04:24am 21.4 - - - - SE 20 - 11 - - 1016.2 -
23/04:00am 21.4 - - - - SE 22 26 12 14 1016.2 - -
23/03:30am 21.4 - - - - ESE 22 28 12 15 1016.3 - -
23/03:24am 21.3 - - - - ESE 24 - 13 - - 1016.3 -
23/03:00am 21.4 - - - - ESE 24 28 13 15 1016.5 - -
23/02:30am 21.2 - - - - ESE 24 28 13 15 1016.9 - -
23/02:24am 21.4 - - - - ESE 24 - 13 - - 1016.8 -
23/02:00am 21.4 - - - - SE 24 28 13 15 1017.0 - -
23/01:30am 21.5 - - - - ESE 26 30 14 16 1017.3 - -
23/01:24am 21.4 - - - - ESE 24 - 13 - - 1017.3 -

Other Formats:

Comma delimited format used in spreadsheet applications
http://www.bom.gov.au/fwo/IDQ60801/IDQ60801.94290.axf

JavaScript Object Notation format (JSON) in row-major order
http://www.bom.gov.au/fwo/IDQ60801/IDQ60801.94290.json